createdAt,value
2019-04-01T00:01:28.883Z,49.47
2019-04-01T00:03:55.951Z,49.53
2019-04-01T00:06:23.029Z,49.67
2019-04-01T00:08:51.308Z,49.77
2019-04-01T00:11:19.577Z,49.78
2019-04-01T00:13:46.656Z,49.86
2019-04-01T00:16:13.736Z,50.00
2019-04-01T00:18:41.675Z,50.03
2019-04-01T00:21:08.751Z,50.18
2019-04-01T00:23:37.625Z,50.31
2019-04-01T00:26:04.999Z,50.34
2019-04-01T00:28:32.071Z,50.50
2019-04-01T00:30:59.157Z,50.56
2019-04-01T00:33:26.250Z,50.74
2019-04-01T00:35:53.315Z,50.90
2019-04-01T00:38:20.382Z,50.99
2019-04-01T00:40:47.466Z,51.07
2019-04-01T00:43:34.114Z,51.20
2019-04-01T00:46:01.186Z,51.24
2019-04-01T00:48:28.282Z,51.25
2019-04-01T00:50:55.361Z,51.27
2019-04-01T00:53:22.674Z,51.31
2019-04-01T00:55:49.774Z,51.49
2019-04-01T00:58:16.875Z,51.51
2019-04-01T01:00:43.945Z,51.59
2019-04-01T01:03:11.005Z,51.62
2019-04-01T01:05:38.069Z,51.79
2019-04-01T01:08:05.144Z,51.81
2019-04-01T01:10:32.212Z,51.96
2019-04-01T01:12:59.302Z,52.05
2019-04-01T01:15:26.418Z,52.07
2019-04-01T01:17:53.474Z,52.16
2019-04-01T01:20:20.583Z,52.24
2019-04-01T01:22:47.652Z,52.20
2019-04-01T01:25:15.817Z,52.30
2019-04-01T01:27:42.891Z,52.45
2019-04-01T01:30:10.671Z,52.47
2019-04-01T01:32:37.739Z,52.53
2019-04-01T01:35:06.264Z,52.57
2019-04-01T01:37:33.332Z,52.69
2019-04-01T01:40:00.441Z,52.71
2019-04-01T01:42:27.511Z,52.83
2019-04-01T01:44:54.595Z,52.86
2019-04-01T01:47:21.706Z,52.93
2019-04-01T01:49:48.782Z,53.00
2019-04-01T01:52:15.878Z,53.19
2019-04-01T01:54:42.958Z,53.19
2019-04-01T01:57:10.129Z,53.24
2019-04-01T01:59:37.203Z,53.25
2019-04-01T02:02:04.984Z,53.52
2019-04-01T02:04:32.058Z,53.71
2019-04-01T02:06:59.130Z,53.84
2019-04-01T02:09:26.265Z,54.31
2019-04-01T02:11:53.345Z,54.34
2019-04-01T02:14:20.422Z,54.49
2019-04-01T02:16:47.489Z,54.53
2019-04-01T02:19:14.587Z,54.55
2019-04-01T02:21:41.686Z,54.49
2019-04-01T02:24:08.747Z,54.61
2019-04-01T02:26:35.815Z,54.69
2019-04-01T02:29:02.911Z,54.77
2019-04-01T02:31:29.981Z,55.03
2019-04-01T02:33:57.072Z,54.95
2019-04-01T02:36:24.144Z,54.94
2019-04-01T02:38:51.191Z,54.86
2019-04-01T02:41:18.259Z,54.85
2019-04-01T02:43:45.362Z,54.98
2019-04-01T02:46:12.471Z,54.96
2019-04-01T02:48:39.537Z,55.00
2019-04-01T02:51:06.603Z,55.11
2019-04-01T02:53:34.643Z,55.21
2019-04-01T02:56:01.741Z,55.23
2019-04-01T02:58:28.801Z,55.44
2019-04-01T03:00:55.855Z,55.47
2019-04-01T03:03:22.992Z,55.58
2019-04-01T03:05:50.059Z,55.50
2019-04-01T03:08:17.141Z,55.59
2019-04-01T03:10:44.243Z,55.54
2019-04-01T03:13:11.318Z,55.52
2019-04-01T03:15:38.382Z,55.55
2019-04-01T03:18:05.451Z,55.55
2019-04-01T03:20:33.291Z,55.58
2019-04-01T03:23:00.356Z,55.71
2019-04-01T03:25:30.469Z,55.78
2019-04-01T03:27:57.524Z,55.87
2019-04-01T03:30:24.698Z,55.94
2019-04-01T03:32:51.800Z,55.98
2019-04-01T03:35:20.243Z,56.04
2019-04-01T03:37:47.316Z,56.11
2019-04-01T03:40:14.399Z,56.10
2019-04-01T03:42:41.477Z,56.12
2019-04-01T03:45:08.850Z,56.17
2019-04-01T03:47:35.944Z,56.11
2019-04-01T03:50:03.439Z,56.12
2019-04-01T03:52:30.505Z,56.10
2019-04-01T03:54:57.596Z,56.09
2019-04-01T03:57:24.748Z,56.08
2019-04-01T03:59:51.810Z,56.11
2019-04-01T04:02:19.087Z,56.14
2019-04-01T04:04:46.167Z,56.14
2019-04-01T04:07:13.227Z,56.18
2019-04-01T04:09:40.340Z,56.21
2019-04-01T04:12:07.472Z,56.21
2019-04-01T04:14:34.532Z,56.21
2019-04-01T04:17:01.599Z,56.27
2019-04-01T04:19:28.854Z,56.31
2019-04-01T04:21:55.900Z,56.27
2019-04-01T04:24:23.051Z,56.32
2019-04-01T04:26:50.116Z,56.35
2019-04-01T04:29:17.189Z,56.45
2019-04-01T04:31:44.267Z,56.52
2019-04-01T04:34:11.336Z,56.55
2019-04-01T04:36:38.569Z,56.58
2019-04-01T04:39:07.632Z,56.62
2019-04-01T04:41:34.970Z,56.66
2019-04-01T04:44:03.952Z,56.70
2019-04-01T04:46:32.884Z,56.76
2019-04-01T04:49:01.104Z,56.72
2019-04-01T04:51:28.240Z,56.70
2019-04-01T04:53:55.543Z,56.73
2019-04-01T04:56:22.639Z,56.79
2019-04-01T04:58:49.744Z,56.83
2019-04-01T05:01:16.821Z,56.88
2019-04-01T05:03:43.920Z,57.01
2019-04-01T05:06:11.103Z,57.05
2019-04-01T05:08:38.260Z,57.09
2019-04-01T05:11:05.955Z,57.15
2019-04-01T05:13:33.034Z,57.19
2019-04-01T05:16:00.219Z,57.20
2019-04-01T05:18:27.316Z,57.19
2019-04-01T05:20:54.898Z,57.21
2019-04-01T05:23:23.779Z,57.21
2019-04-01T05:25:53.201Z,57.27
2019-04-01T05:28:21.870Z,57.29
2019-04-01T05:30:51.815Z,57.36
2019-04-01T05:33:22.376Z,57.57
2019-04-01T05:35:49.461Z,57.62
2019-04-01T05:38:16.554Z,57.69
2019-04-01T05:40:43.846Z,57.67
2019-04-01T05:43:11.211Z,57.70
2019-04-01T05:45:38.295Z,57.75
2019-04-01T05:48:05.415Z,57.73
2019-04-01T05:50:32.830Z,57.92
2019-04-01T05:52:59.900Z,58.61
2019-04-01T05:55:26.962Z,58.25
2019-04-01T05:57:55.833Z,58.12
2019-04-01T06:00:31.839Z,57.99
2019-04-01T06:02:59.011Z,57.83
2019-04-01T06:05:26.077Z,57.73
2019-04-01T06:07:53.156Z,57.69
2019-04-01T06:10:20.431Z,57.63
2019-04-01T06:12:47.625Z,57.55
2019-04-01T06:15:14.718Z,57.58
2019-04-01T06:17:42.894Z,57.43
2019-04-01T06:20:09.967Z,57.38
2019-04-01T06:22:37.141Z,57.38
2019-04-01T06:25:04.628Z,57.29
2019-04-01T06:27:32.337Z,57.26
2019-04-01T06:29:59.827Z,57.23
2019-04-01T06:32:26.908Z,57.16
2019-04-01T06:34:53.994Z,57.05
2019-04-01T06:37:21.149Z,57.02
2019-04-01T06:39:48.252Z,57.00
2019-04-01T06:42:15.391Z,56.94
2019-04-01T06:44:42.491Z,56.86
2019-04-01T06:47:09.575Z,56.85
2019-04-01T06:49:36.657Z,56.81
2019-04-01T06:52:03.723Z,56.70
2019-04-01T06:54:30.799Z,56.59
2019-04-01T06:56:57.869Z,56.56
2019-04-01T06:59:24.942Z,56.38
2019-04-01T07:01:52.027Z,56.32
2019-04-01T07:04:20.403Z,56.38
2019-04-01T07:06:47.493Z,56.29
2019-04-01T07:09:14.557Z,56.17
2019-04-01T07:11:42.011Z,56.05
2019-04-01T07:14:09.255Z,56.07
2019-04-01T07:16:39.839Z,55.96
2019-04-01T07:19:05.313Z,55.74
2019-04-01T07:21:32.399Z,55.72
2019-04-01T07:23:59.463Z,55.81
2019-04-01T07:26:26.731Z,55.71
2019-04-01T07:28:54.303Z,55.55
2019-04-01T07:31:21.371Z,55.27
2019-04-01T07:33:48.445Z,55.23
2019-04-01T07:36:15.711Z,55.36
2019-04-01T07:38:42.786Z,55.43
2019-04-01T07:41:09.869Z,55.43
2019-04-01T07:43:37.564Z,55.39
2019-04-01T07:46:08.059Z,55.29
2019-04-01T07:48:33.643Z,55.17
2019-04-01T07:51:01.814Z,54.98
2019-04-01T07:53:28.916Z,54.92
2019-04-01T07:55:55.951Z,54.73
2019-04-01T07:58:23.028Z,54.66
2019-04-01T08:00:50.143Z,54.71
2019-04-01T08:03:17.211Z,54.10
2019-04-01T08:05:44.591Z,54.38
2019-04-01T08:08:11.662Z,56.00
2019-04-01T08:10:38.752Z,58.55
2019-04-01T08:13:05.819Z,57.09
2019-04-01T08:15:33.093Z,57.20
2019-04-01T08:18:00.166Z,54.12
2019-04-01T08:20:27.252Z,51.27
2019-04-01T08:22:54.316Z,48.78
2019-04-01T08:25:21.399Z,44.82
2019-04-01T08:27:48.583Z,44.71
2019-04-01T08:30:16.376Z,43.33
2019-04-01T08:32:43.462Z,42.99
2019-04-01T08:35:10.839Z,41.25
2019-04-01T08:37:40.267Z,39.14
2019-04-01T08:40:07.303Z,38.85
2019-04-01T08:42:34.587Z,38.90
2019-04-01T08:45:01.772Z,39.56
2019-04-01T08:47:28.864Z,39.63
2019-04-01T08:49:55.943Z,39.65
2019-04-01T08:52:23.238Z,40.59
2019-04-01T08:54:52.323Z,40.35
2019-04-01T08:57:19.786Z,39.95
2019-04-01T08:59:46.855Z,38.74
2019-04-01T09:02:18.022Z,38.90
2019-04-01T09:04:43.273Z,39.61
2019-04-01T09:07:10.340Z,39.84
2019-04-01T09:09:37.943Z,40.01
2019-04-01T09:12:05.016Z,39.94
2019-04-01T09:14:32.480Z,39.09
2019-04-01T09:17:00.172Z,39.03
2019-04-01T09:19:27.236Z,39.28
2019-04-01T09:21:55.714Z,38.61
2019-04-01T09:24:25.941Z,38.80
2019-04-01T09:26:53.010Z,38.26
2019-04-01T09:29:20.100Z,38.92
2019-04-01T09:31:47.151Z,39.33
2019-04-01T09:34:16.042Z,39.59
2019-04-01T09:36:43.122Z,39.00
2019-04-01T09:39:10.201Z,38.90
2019-04-01T09:41:37.289Z,38.36
2019-04-01T09:44:04.453Z,38.44
2019-04-01T09:46:31.527Z,38.85
2019-04-01T09:48:58.644Z,39.25
2019-04-01T09:51:25.718Z,39.22
2019-04-01T09:53:52.800Z,39.85
2019-04-01T09:56:21.115Z,39.35
2019-04-01T09:58:48.200Z,38.08
2019-04-01T10:01:15.273Z,38.25
2019-04-01T10:03:42.352Z,37.88
2019-04-01T10:06:10.551Z,38.29
2019-04-01T10:08:42.515Z,38.24
2019-04-01T10:11:06.799Z,38.43
2019-04-01T10:13:33.921Z,38.39
2019-04-01T10:16:01.006Z,38.57
2019-04-01T10:18:28.095Z,38.86
2019-04-01T10:20:55.183Z,38.77
2019-04-01T10:23:22.270Z,38.41
2019-04-01T10:25:51.265Z,38.40
2019-04-01T10:28:18.391Z,38.85
2019-04-01T10:30:45.460Z,39.06
2019-04-01T10:33:12.541Z,39.01
2019-04-01T10:35:39.627Z,38.69
2019-04-01T10:38:06.702Z,37.86
2019-04-01T10:40:33.782Z,37.50
2019-04-01T10:43:00.862Z,37.98
2019-04-01T10:45:28.006Z,37.49
2019-04-01T10:47:55.177Z,37.74
2019-04-01T10:50:22.315Z,36.84
2019-04-01T10:52:49.420Z,37.08
2019-04-01T10:55:16.543Z,37.05
2019-04-01T10:57:43.951Z,36.26
2019-04-01T11:00:13.276Z,36.57
2019-04-01T11:02:40.369Z,35.91
2019-04-01T11:05:07.768Z,35.80
2019-04-01T11:07:34.922Z,35.92
2019-04-01T11:10:02.453Z,35.78
2019-04-01T11:12:30.836Z,34.44
2019-04-01T11:14:57.922Z,33.91
2019-04-01T11:17:24.990Z,35.03
2019-04-01T11:19:53.359Z,35.43
2019-04-01T11:22:20.442Z,34.61
2019-04-01T11:24:47.518Z,34.41
2019-04-01T11:27:14.598Z,34.61
2019-04-01T11:29:41.708Z,33.42
2019-04-01T11:32:08.815Z,34.11
2019-04-01T11:34:35.849Z,33.99
2019-04-01T11:37:03.165Z,32.39
2019-04-01T11:39:30.209Z,33.31
2019-04-01T11:42:01.010Z,33.67
2019-04-01T11:44:26.293Z,33.54
2019-04-01T11:46:54.424Z,33.46
2019-04-01T11:49:21.641Z,33.84
2019-04-01T11:51:48.887Z,33.41
2019-04-01T11:54:15.902Z,32.95
2019-04-01T11:56:42.968Z,33.17
2019-04-01T11:59:10.087Z,32.72
2019-04-01T12:01:37.173Z,32.64
2019-04-01T12:04:04.260Z,32.22
2019-04-01T12:06:33.129Z,32.67
2019-04-01T12:09:03.425Z,32.26
2019-04-01T12:11:30.492Z,32.36
2019-04-01T12:13:57.596Z,32.51
2019-04-01T12:16:24.680Z,32.89
2019-04-01T12:18:53.259Z,33.23
2019-04-01T12:21:20.771Z,32.64
2019-04-01T12:23:48.071Z,32.28
2019-04-01T12:26:17.517Z,32.59
2019-04-01T12:28:44.650Z,32.95
2019-04-01T12:31:13.037Z,33.30
2019-04-01T12:33:40.591Z,33.43
2019-04-01T12:36:11.346Z,32.76
2019-04-01T12:38:36.673Z,32.82
2019-04-01T12:41:04.797Z,32.84
2019-04-01T12:43:31.868Z,32.78
2019-04-01T12:45:58.972Z,33.00
2019-04-01T12:48:26.048Z,32.53
2019-04-01T12:50:53.163Z,32.68
2019-04-01T12:53:20.380Z,32.66
2019-04-01T12:55:47.595Z,32.73
2019-04-01T12:58:17.650Z,32.65
2019-04-01T13:00:43.863Z,32.71
2019-04-01T13:03:11.050Z,32.68
2019-04-01T13:05:38.092Z,32.79
2019-04-01T13:08:05.189Z,32.73
2019-04-01T13:10:32.529Z,32.62
2019-04-01T13:12:59.655Z,32.61
2019-04-01T13:15:26.751Z,32.59
2019-04-01T13:17:53.853Z,32.44
2019-04-01T13:20:20.942Z,31.95
2019-04-01T13:22:48.016Z,32.19
2019-04-01T13:25:15.088Z,31.88
2019-04-01T13:27:42.226Z,31.82
2019-04-01T13:30:09.430Z,32.22
2019-04-01T13:32:36.669Z,32.46
2019-04-01T13:35:04.116Z,31.68
2019-04-01T13:37:31.175Z,31.40
2019-04-01T13:39:58.254Z,30.31
2019-04-01T13:42:25.335Z,31.04
2019-04-01T13:44:52.547Z,31.30
2019-04-01T13:47:20.493Z,30.85
2019-04-01T13:49:47.975Z,30.82
2019-04-01T13:52:15.479Z,30.47
2019-04-01T13:54:42.995Z,30.67
2019-04-01T13:57:10.193Z,30.51
2019-04-01T13:59:48.472Z,30.67
2019-04-01T14:02:06.665Z,30.33
2019-04-01T14:04:33.724Z,30.49
2019-04-01T14:07:00.812Z,29.90
2019-04-01T14:09:30.805Z,29.68
2019-04-01T14:11:57.665Z,29.63
2019-04-01T14:14:24.741Z,29.68
2019-04-01T14:16:52.704Z,29.96
2019-04-01T14:19:19.771Z,29.52
2019-04-01T14:21:47.440Z,30.02
2019-04-01T14:24:15.231Z,30.05
2019-04-01T14:26:44.317Z,30.16
2019-04-01T14:29:11.508Z,30.11
2019-04-01T14:31:38.629Z,30.11
2019-04-01T14:34:06.358Z,29.86
2019-04-01T14:36:33.888Z,29.60
2019-04-01T14:39:00.977Z,29.69
2019-04-01T14:41:28.065Z,29.58
2019-04-01T14:43:55.399Z,29.48
2019-04-01T14:46:24.965Z,29.15
2019-04-01T14:48:52.079Z,28.65
2019-04-01T14:51:19.162Z,28.95
2019-04-01T14:53:47.559Z,28.99
2019-04-01T14:56:14.661Z,29.02
2019-04-01T14:58:41.749Z,28.99
2019-04-01T15:01:08.846Z,28.96
2019-04-01T15:03:36.017Z,28.50
2019-04-01T15:06:03.121Z,28.76
2019-04-01T15:08:30.211Z,28.71
2019-04-01T15:10:57.292Z,28.95
2019-04-01T15:13:24.409Z,29.06
2019-04-01T15:15:51.483Z,28.58
2019-04-01T15:18:18.559Z,28.50
2019-04-01T15:20:45.671Z,28.80
2019-04-01T15:23:12.760Z,28.71
2019-04-01T15:25:40.935Z,28.90
2019-04-01T15:28:08.020Z,28.50
2019-04-01T15:30:36.209Z,27.93
2019-04-01T15:33:04.564Z,28.26
2019-04-01T15:35:31.674Z,28.52
2019-04-01T15:37:59.683Z,28.64
2019-04-01T15:40:26.993Z,28.59
2019-04-01T15:42:54.817Z,28.55
2019-04-01T15:45:22.196Z,28.54
2019-04-01T15:47:50.543Z,28.57
2019-04-01T15:50:28.318Z,28.92
2019-04-01T15:52:48.100Z,29.14
2019-04-01T15:55:17.394Z,29.30
2019-04-01T15:57:46.231Z,29.17
2019-04-01T16:00:14.107Z,29.22
2019-04-01T16:02:41.659Z,29.31
2019-04-01T16:05:08.962Z,29.22
2019-04-01T16:07:37.179Z,29.46
2019-04-01T16:10:05.961Z,29.79
2019-04-01T16:12:33.167Z,29.83
2019-04-01T16:15:00.225Z,29.88
2019-04-01T16:17:27.304Z,29.93
2019-04-01T16:19:56.201Z,30.12
2019-04-01T16:22:24.379Z,30.36
2019-04-01T16:24:51.461Z,30.54
2019-04-01T16:27:19.891Z,30.66
2019-04-01T16:29:48.050Z,30.65
2019-04-01T16:32:15.163Z,30.64
2019-04-01T16:34:43.358Z,30.67
2019-04-01T16:37:10.442Z,30.71
2019-04-01T16:39:37.551Z,30.86
2019-04-01T16:42:04.636Z,30.95
2019-04-01T16:44:32.818Z,30.90
2019-04-01T16:46:59.908Z,31.07
2019-04-01T16:49:27.001Z,31.19
2019-04-01T16:51:54.105Z,31.30
2019-04-01T16:54:21.189Z,31.47
2019-04-01T16:56:48.274Z,31.51
2019-04-01T16:59:15.348Z,31.72
2019-04-01T17:01:42.753Z,31.76
2019-04-01T17:04:11.648Z,31.92
2019-04-01T17:06:38.761Z,31.98
2019-04-01T17:09:08.035Z,32.14
2019-04-01T17:11:35.507Z,32.17
2019-04-01T17:14:02.893Z,32.29
2019-04-01T17:16:29.982Z,32.37
2019-04-01T17:18:57.805Z,32.66
2019-04-01T17:21:25.116Z,33.46
2019-04-01T17:23:52.293Z,33.82
2019-04-01T17:26:20.014Z,34.27
2019-04-01T17:28:47.072Z,34.55
2019-04-01T17:31:14.172Z,36.14
2019-04-01T17:33:41.256Z,36.42
2019-04-01T17:36:08.446Z,37.23
2019-04-01T17:38:36.211Z,37.52
2019-04-01T17:41:04.355Z,37.88
2019-04-01T17:43:31.450Z,38.85
2019-04-01T17:45:58.519Z,38.90
2019-04-01T17:48:25.599Z,39.36
2019-04-01T17:50:52.674Z,39.93
2019-04-01T17:53:19.748Z,39.86
2019-04-01T17:55:48.045Z,40.18
2019-04-01T17:58:15.944Z,40.88
2019-04-01T18:00:46.916Z,40.57
2019-04-01T18:03:14.007Z,41.01
2019-04-01T18:05:41.399Z,41.59
2019-04-01T18:08:08.500Z,41.06
2019-04-01T18:10:35.572Z,41.15
2019-04-01T18:13:02.661Z,41.48
2019-04-01T18:15:29.729Z,41.52
2019-04-01T18:17:56.824Z,41.78
2019-04-01T18:20:23.907Z,41.67
2019-04-01T18:22:51.007Z,41.62
2019-04-01T18:25:18.102Z,41.48
2019-04-01T18:27:45.181Z,41.90
2019-04-01T18:30:14.116Z,41.75
2019-04-01T18:32:41.240Z,41.68
2019-04-01T18:35:08.624Z,41.95
2019-04-01T18:37:35.759Z,42.26
2019-04-01T18:40:03.991Z,42.17
2019-04-01T18:42:31.375Z,42.39
2019-04-01T18:44:59.158Z,42.55
2019-04-01T18:47:26.685Z,42.62
2019-04-01T18:49:53.811Z,42.86
2019-04-01T18:52:20.921Z,43.00
2019-04-01T18:54:48.062Z,43.12
2019-04-01T18:57:15.158Z,43.18
2019-04-01T18:59:42.262Z,43.76
2019-04-01T19:02:09.881Z,43.62
2019-04-01T19:04:37.087Z,43.46
2019-04-01T19:07:04.883Z,43.76
2019-04-01T19:09:33.143Z,43.58
2019-04-01T19:12:04.267Z,43.89
2019-04-01T19:14:29.893Z,43.68
2019-04-01T19:16:57.044Z,44.08
2019-04-01T19:19:24.130Z,43.95
2019-04-01T19:21:51.342Z,44.52
2019-04-01T19:24:18.413Z,44.47
2019-04-01T19:26:45.590Z,44.70
2019-04-01T19:29:12.827Z,44.63
2019-04-01T19:31:41.132Z,45.13
2019-04-01T19:34:08.362Z,45.03
2019-04-01T19:36:35.431Z,45.17
2019-04-01T19:39:04.824Z,45.09
2019-04-01T19:41:31.900Z,45.48
2019-04-01T19:43:58.960Z,45.61
2019-04-01T19:46:26.035Z,45.77
2019-04-01T19:48:54.221Z,45.67
2019-04-01T19:51:21.314Z,46.15
2019-04-01T19:53:48.457Z,45.78
2019-04-01T19:56:15.538Z,46.16
2019-04-01T19:58:42.771Z,46.40
2019-04-01T20:01:09.866Z,46.37
2019-04-01T20:03:36.944Z,46.43
2019-04-01T20:06:07.203Z,46.71
2019-04-01T20:08:33.019Z,47.22
2019-04-01T20:11:00.143Z,47.42
2019-04-01T20:13:27.210Z,46.81
2019-04-01T20:15:54.298Z,46.85
2019-04-01T20:18:21.376Z,46.83
2019-04-01T20:20:48.448Z,47.15
2019-04-01T20:23:15.719Z,47.08
2019-04-01T20:25:42.823Z,47.05
2019-04-01T20:28:10.067Z,47.42
2019-04-01T20:30:38.093Z,47.18
2019-04-01T20:33:17.020Z,47.23
2019-04-01T20:35:35.145Z,47.32
2019-04-01T20:38:02.471Z,47.52
2019-04-01T20:40:29.693Z,47.33
2019-04-01T20:42:56.919Z,47.20
2019-04-01T20:45:24.109Z,47.41
2019-04-01T20:47:51.239Z,47.34
2019-04-01T20:50:18.747Z,47.20
2019-04-01T20:52:45.872Z,47.40
2019-04-01T20:55:13.504Z,47.74
2019-04-01T20:57:40.908Z,47.86
2019-04-01T21:00:09.527Z,48.18
2019-04-01T21:02:36.919Z,48.08
2019-04-01T21:05:04.819Z,48.34
2019-04-01T21:07:31.896Z,49.37
2019-04-01T21:09:58.966Z,49.29
2019-04-01T21:12:26.059Z,49.36
2019-04-01T21:14:55.939Z,49.20
2019-04-01T21:17:22.096Z,49.05
2019-04-01T21:19:49.192Z,48.84
2019-04-01T21:22:16.258Z,48.85
2019-04-01T21:24:43.357Z,48.66
2019-04-01T21:27:10.433Z,49.05
2019-04-01T21:29:37.491Z,49.97
2019-04-01T21:32:04.596Z,49.52
2019-04-01T21:34:31.659Z,49.78
2019-04-01T21:36:58.723Z,50.00
2019-04-01T21:39:25.817Z,50.17
2019-04-01T21:41:53.902Z,50.38
2019-04-01T21:44:23.694Z,50.07
2019-04-01T21:46:50.771Z,50.13
2019-04-01T21:49:17.833Z,50.20
2019-04-01T21:51:44.909Z,50.08
2019-04-01T21:54:11.979Z,50.10
2019-04-01T21:56:39.043Z,49.98
2019-04-01T21:59:06.113Z,49.96
2019-04-01T22:01:33.680Z,50.06
2019-04-01T22:04:00.769Z,50.40
2019-04-01T22:06:27.834Z,50.91
2019-04-01T22:08:57.727Z,50.57
2019-04-01T22:11:24.798Z,50.56
2019-04-01T22:13:52.003Z,50.58
2019-04-01T22:16:19.152Z,51.18
2019-04-01T22:18:46.623Z,51.04
2019-04-01T22:21:13.700Z,50.89
2019-04-01T22:23:40.759Z,51.12
2019-04-01T22:26:07.831Z,51.77
2019-04-01T22:28:36.890Z,52.00
2019-04-01T22:31:03.932Z,51.85
2019-04-01T22:33:31.410Z,51.89
2019-04-01T22:35:58.477Z,51.88
2019-04-01T22:38:25.621Z,52.14
2019-04-01T22:40:52.738Z,51.83
2019-04-01T22:43:19.800Z,52.12
2019-04-01T22:45:46.868Z,52.54
2019-04-01T22:48:14.212Z,53.22
2019-04-01T22:50:41.421Z,53.24
2019-04-01T22:53:08.489Z,53.75
2019-04-01T22:55:35.568Z,53.30
2019-04-01T22:58:02.644Z,53.51
2019-04-01T23:00:29.728Z,53.37
2019-04-01T23:02:56.799Z,53.97
2019-04-01T23:05:23.874Z,54.16
2019-04-01T23:07:50.947Z,54.98
2019-04-01T23:10:18.012Z,55.38
2019-04-01T23:12:45.086Z,55.77
2019-04-01T23:15:12.478Z,56.14
2019-04-01T23:17:39.552Z,56.27
2019-04-01T23:20:06.919Z,56.79
2019-04-01T23:22:33.980Z,57.27
2019-04-01T23:25:01.047Z,57.14
2019-04-01T23:27:28.116Z,57.55
2019-04-01T23:29:55.170Z,58.05
2019-04-01T23:32:22.340Z,57.73
2019-04-01T23:34:49.420Z,57.63
2019-04-01T23:37:16.514Z,57.58
2019-04-01T23:39:43.602Z,57.02
2019-04-01T23:42:10.690Z,57.23
2019-04-01T23:44:37.817Z,56.87
2019-04-01T23:47:04.887Z,56.35
2019-04-01T23:49:31.955Z,56.48
2019-04-01T23:51:59.018Z,56.50
2019-04-01T23:54:27.190Z,56.08
2019-04-01T23:56:54.259Z,55.81
2019-04-01T23:59:22.435Z,55.75
